createdAt,value
2022-10-23T00:03:50.499Z,14.17
2022-10-23T00:08:51.331Z,14.14
2022-10-23T00:13:52.176Z,14.12
2022-10-23T00:18:53.001Z,14.07
2022-10-23T00:23:53.815Z,14.06
2022-10-23T00:28:54.494Z,14.03
2022-10-23T00:33:55.332Z,13.97
2022-10-23T00:38:56.084Z,13.96
2022-10-23T00:43:56.773Z,13.96
2022-10-23T00:48:57.703Z,13.99
2022-10-23T00:54:12.679Z,14.00
2022-10-23T01:04:48.954Z,14.06
2022-10-23T01:09:49.685Z,14.09
2022-10-23T01:14:50.381Z,14.14
2022-10-23T01:19:51.146Z,14.12
2022-10-23T01:24:51.845Z,14.09
2022-10-23T01:29:52.668Z,14.10
2022-10-23T01:34:53.344Z,14.10
2022-10-23T01:39:54.121Z,14.09
2022-10-23T01:44:54.789Z,14.04
2022-10-23T01:49:55.539Z,14.00
2022-10-23T01:54:56.267Z,14.00
2022-10-23T01:59:56.995Z,14.02
2022-10-23T02:04:57.715Z,14.04
2022-10-23T02:09:58.482Z,14.04
2022-10-23T02:14:59.220Z,14.02
2022-10-23T02:19:59.931Z,14.00
2022-10-23T02:25:00.658Z,14.00
2022-10-23T02:30:01.397Z,14.03
2022-10-23T02:35:02.109Z,14.07
2022-10-23T02:40:02.832Z,14.06
2022-10-23T02:45:03.628Z,14.09
2022-10-23T02:50:04.306Z,14.07
2022-10-23T02:55:05.050Z,14.07
2022-10-23T03:00:05.749Z,14.02
2022-10-23T03:05:06.453Z,13.97
2022-10-23T03:10:07.181Z,13.92
2022-10-23T03:15:07.912Z,13.91
2022-10-23T03:20:08.610Z,13.82
2022-10-23T03:25:09.349Z,13.75
2022-10-23T03:30:10.195Z,13.67
2022-10-23T03:35:11.066Z,13.62
2022-10-23T03:40:11.887Z,13.55
2022-10-23T03:45:13.070Z,13.54
2022-10-23T03:50:13.281Z,13.46
2022-10-23T03:55:14.016Z,13.38
2022-10-23T04:00:14.731Z,13.29
2022-10-23T04:05:15.462Z,13.22
2022-10-23T04:10:16.200Z,13.19
2022-10-23T04:15:17.089Z,13.08
2022-10-23T04:20:17.807Z,13.01
2022-10-23T04:25:18.527Z,12.87
2022-10-23T04:30:19.203Z,12.78
2022-10-23T04:35:19.951Z,12.72
2022-10-23T04:40:20.671Z,12.67
2022-10-23T04:45:21.372Z,12.62
2022-10-23T04:50:22.110Z,12.59
2022-10-23T04:55:22.864Z,12.56
2022-10-23T05:00:23.582Z,12.49
2022-10-23T05:05:24.294Z,12.41
2022-10-23T05:10:25.026Z,12.37
2022-10-23T05:15:25.704Z,12.32
2022-10-23T05:20:26.397Z,12.35
2022-10-23T05:25:27.092Z,12.32
2022-10-23T05:30:27.735Z,12.29
2022-10-23T05:35:28.405Z,12.32
2022-10-23T05:40:29.225Z,12.29
2022-10-23T05:45:29.949Z,12.29
2022-10-23T05:50:30.613Z,12.27
2022-10-23T05:55:31.293Z,12.21
2022-10-23T06:00:31.954Z,12.24
2022-10-23T06:05:32.717Z,12.28
2022-10-23T06:10:33.380Z,12.24
2022-10-23T06:15:34.030Z,12.27
2022-10-23T06:20:34.745Z,12.31
2022-10-23T06:25:35.395Z,12.29
2022-10-23T06:30:36.047Z,12.32
2022-10-23T06:35:36.714Z,12.37
2022-10-23T06:40:37.360Z,12.38
2022-10-23T06:45:38.033Z,12.41
2022-10-23T06:50:38.706Z,12.53
2022-10-23T06:55:39.455Z,12.65
2022-10-23T07:00:47.153Z,12.75
2022-10-23T07:05:40.835Z,12.87
2022-10-23T07:10:41.480Z,12.93
2022-10-23T07:15:42.185Z,12.93
2022-10-23T07:20:42.886Z,13.03
2022-10-23T07:25:43.538Z,13.20
2022-10-23T07:30:44.274Z,13.33
2022-10-23T07:35:44.940Z,13.41
2022-10-23T07:40:45.579Z,13.46
2022-10-23T07:45:46.345Z,13.51
2022-10-23T07:50:47.008Z,13.62
2022-10-23T07:55:47.799Z,13.73
2022-10-23T08:00:48.598Z,13.87
2022-10-23T08:05:49.242Z,14.04
2022-10-23T08:10:49.953Z,14.18
2022-10-23T08:15:50.671Z,14.40
2022-10-23T08:20:51.299Z,14.64
2022-10-23T08:25:52.098Z,14.80
2022-10-23T08:30:52.864Z,14.95
2022-10-23T08:35:53.687Z,15.06
2022-10-23T08:40:54.338Z,15.17
2022-10-23T08:45:55.152Z,15.27
2022-10-23T08:50:55.906Z,15.32
2022-10-23T08:55:56.658Z,15.39
2022-10-23T09:00:57.376Z,15.50
2022-10-23T09:05:58.189Z,15.56
2022-10-23T09:10:58.953Z,15.62
2022-10-23T09:15:59.578Z,15.74
2022-10-23T09:21:00.406Z,15.84
2022-10-23T09:26:01.228Z,15.83
2022-10-23T09:31:02.044Z,15.94
2022-10-23T09:36:02.877Z,16.01
2022-10-23T09:41:03.522Z,16.15
2022-10-23T09:46:04.308Z,16.35
2022-10-23T09:51:05.075Z,16.60
2022-10-23T09:56:05.728Z,16.81
2022-10-23T10:01:06.671Z,16.88
2022-10-23T10:06:07.023Z,17.03
2022-10-23T10:11:07.677Z,17.16
2022-10-23T10:16:08.490Z,17.22
2022-10-23T10:21:09.267Z,17.30
2022-10-23T10:26:09.873Z,17.48
2022-10-23T10:31:10.685Z,17.62
2022-10-23T10:36:11.497Z,17.64
2022-10-23T10:41:12.163Z,17.68
2022-10-23T10:46:12.940Z,17.74
2022-10-23T10:51:13.611Z,17.95
2022-10-23T10:56:14.245Z,18.11
2022-10-23T11:01:15.177Z,18.14
2022-10-23T11:06:15.874Z,18.26
2022-10-23T11:11:16.706Z,18.15
2022-10-23T11:16:17.455Z,18.20
2022-10-23T11:21:18.108Z,18.26
2022-10-23T11:26:19.733Z,18.42
2022-10-23T11:31:19.731Z,18.55
2022-10-23T11:36:20.393Z,18.63
2022-10-23T11:41:23.769Z,18.60
2022-10-23T11:46:22.619Z,18.60
2022-10-23T11:51:22.271Z,18.58
2022-10-23T11:56:23.002Z,18.55
2022-10-23T12:01:23.679Z,18.57
2022-10-23T12:06:24.358Z,18.65
2022-10-23T12:11:27.468Z,18.82
2022-10-23T12:16:25.962Z,18.92
2022-10-23T12:21:26.645Z,18.98
2022-10-23T12:26:27.353Z,19.10
2022-10-23T12:31:27.964Z,19.10
2022-10-23T12:36:28.825Z,19.04
2022-10-23T12:41:29.548Z,18.88
2022-10-23T12:46:30.186Z,18.75
2022-10-23T12:51:30.886Z,18.66
2022-10-23T12:56:34.402Z,18.63
2022-10-23T13:01:41.657Z,18.66
2022-10-23T13:06:32.980Z,18.62
2022-10-23T13:11:33.682Z,18.62
2022-10-23T13:16:34.322Z,18.62
2022-10-23T13:21:35.042Z,18.54
2022-10-23T13:26:35.691Z,18.51
2022-10-23T13:31:36.374Z,18.47
2022-10-23T13:36:37.068Z,18.47
2022-10-23T13:41:37.758Z,18.51
2022-10-23T13:46:38.489Z,18.48
2022-10-23T13:51:42.515Z,18.48
2022-10-23T13:56:40.008Z,18.36
2022-10-23T14:01:40.834Z,18.21
2022-10-23T14:06:41.557Z,18.14
2022-10-23T14:11:42.216Z,18.05
2022-10-23T14:16:42.918Z,18.00
2022-10-23T14:21:43.563Z,17.99
2022-10-23T14:26:44.310Z,17.93
2022-10-23T14:31:44.978Z,17.86
2022-10-23T14:36:50.896Z,17.86
2022-10-23T14:41:47.259Z,17.82
2022-10-23T14:46:46.962Z,17.78
2022-10-23T14:51:47.604Z,17.77
2022-10-23T14:56:48.301Z,17.72
2022-10-23T15:01:49.137Z,17.66
2022-10-23T15:06:49.837Z,17.58
2022-10-23T15:11:50.579Z,17.52
2022-10-23T15:16:51.488Z,17.48
2022-10-23T15:21:52.291Z,17.40
2022-10-23T15:26:53.011Z,17.31
2022-10-23T15:31:53.627Z,17.19
2022-10-23T15:36:54.448Z,17.07
2022-10-23T15:41:55.161Z,16.94
2022-10-23T15:46:55.793Z,16.88
2022-10-23T15:51:56.636Z,16.76
2022-10-23T15:56:57.266Z,16.63
2022-10-23T16:01:58.278Z,16.57
2022-10-23T16:06:58.632Z,16.50
2022-10-23T16:11:59.295Z,16.52
2022-10-23T16:17:00.019Z,16.52
2022-10-23T16:22:00.636Z,16.48
2022-10-23T16:27:01.386Z,16.48
2022-10-23T16:32:02.128Z,16.46
2022-10-23T16:37:02.980Z,16.43
2022-10-23T16:42:03.754Z,16.41
2022-10-23T16:47:04.514Z,16.31
2022-10-23T16:52:05.323Z,16.28
2022-10-23T16:57:06.011Z,16.23
2022-10-23T17:02:06.963Z,16.25
2022-10-23T17:07:07.211Z,16.24
2022-10-23T17:12:07.949Z,16.27
2022-10-23T17:17:08.688Z,16.24
2022-10-23T17:22:09.407Z,16.21
2022-10-23T17:27:10.146Z,16.15
2022-10-23T17:32:10.998Z,16.20
2022-10-23T17:37:11.830Z,16.17
2022-10-23T17:42:12.546Z,16.15
2022-10-23T17:47:13.316Z,16.14
2022-10-23T17:52:14.011Z,16.12
2022-10-23T17:57:14.779Z,16.05
2022-10-23T18:02:15.663Z,16.02
2022-10-23T18:07:15.922Z,16.01
2022-10-23T18:12:16.626Z,16.02
2022-10-23T18:17:17.355Z,16.00
2022-10-23T18:27:18.917Z,15.90
2022-10-23T18:32:19.603Z,15.82
2022-10-23T18:37:20.440Z,15.76
2022-10-23T18:42:21.138Z,15.74
2022-10-23T18:47:21.892Z,15.71
2022-10-23T18:52:22.586Z,15.64
2022-10-23T18:57:23.323Z,15.59
2022-10-23T19:02:24.242Z,15.57
2022-10-23T19:07:24.976Z,15.53
2022-10-23T19:12:25.712Z,15.49
2022-10-23T19:17:26.431Z,15.44
2022-10-23T19:22:27.167Z,15.41
2022-10-23T19:27:27.883Z,15.38
2022-10-23T19:32:28.718Z,15.35
2022-10-23T19:37:29.536Z,15.31
2022-10-23T19:42:30.269Z,15.28
2022-10-23T19:47:31.012Z,15.25
2022-10-23T19:52:38.780Z,15.25
2022-10-23T19:57:32.488Z,15.25
2022-10-23T20:02:33.382Z,15.23
2022-10-23T20:07:33.807Z,15.20
2022-10-23T20:12:34.563Z,15.16
2022-10-23T20:17:35.321Z,15.11
2022-10-23T20:22:36.030Z,15.07
2022-10-23T20:32:37.399Z,15.01
2022-10-23T20:37:38.285Z,14.94
2022-10-23T20:42:39.072Z,14.89
2022-10-23T20:47:39.996Z,14.84
2022-10-23T20:52:40.841Z,14.81
2022-10-23T20:57:42.259Z,14.78
2022-10-23T21:02:43.267Z,14.72
2022-10-23T21:07:42.897Z,14.60
2022-10-23T21:12:44.029Z,14.55
2022-10-23T21:17:44.506Z,14.51
2022-10-23T21:22:45.537Z,14.46
2022-10-23T21:27:46.428Z,14.37
2022-10-23T21:32:46.782Z,14.36
2022-10-23T21:37:47.526Z,14.33
2022-10-23T21:42:48.238Z,14.36
2022-10-23T21:47:48.936Z,14.35
2022-10-23T21:52:49.683Z,14.40
2022-10-23T21:57:50.394Z,14.46
2022-10-23T22:02:51.105Z,14.50
2022-10-23T22:07:51.878Z,14.51
2022-10-23T22:12:52.618Z,14.60
2022-10-23T22:17:53.328Z,14.65
2022-10-23T22:22:54.075Z,14.72
2022-10-23T22:27:54.817Z,14.78
2022-10-23T22:32:55.571Z,14.81
2022-10-23T22:37:56.231Z,14.83
2022-10-23T22:42:56.991Z,14.81
2022-10-23T22:47:57.734Z,14.75
2022-10-23T22:52:58.456Z,14.73
2022-10-23T22:57:59.213Z,14.77
2022-10-23T23:03:00.056Z,14.73
2022-10-23T23:08:00.824Z,14.72
2022-10-23T23:13:01.578Z,14.65
2022-10-23T23:18:02.321Z,14.62
2022-10-23T23:23:03.021Z,14.57
2022-10-23T23:28:03.801Z,14.36
2022-10-23T23:33:04.533Z,14.32
2022-10-23T23:38:05.268Z,14.35
2022-10-23T23:43:05.991Z,14.33
2022-10-23T23:48:06.777Z,14.33
2022-10-23T23:53:07.504Z,14.32
2022-10-23T23:58:08.239Z,14.32
